Time;durP1;ratioP1;P1;durP2;ratioP2;P2;SDS_P1;SDS_P2;PMS_P1;PMS_P2;Temp;Humidity;BMP_temperature;BMP_pressure;BME280_temperature;BME280_humidity;BME280_pressure;Samples;Min_cycle;Max_cycle;Signal;HPM_P1;HPM_P2
2021/09/21 00:00:48;;;;;;;6.07;4.75;;;11.70;99.90;;;;;;4770315;29;20397;-89
2021/09/21 00:03:13;;;;;;;8.55;5.15;;;11.70;99.90;;;;;;4767951;30;20116;-91
2021/09/21 00:05:39;;;;;;;8.13;5.13;;;11.70;99.90;;;;;;4784829;29;20047;-89
2021/09/21 00:08:05;;;;;;;6.10;4.90;;;11.70;99.90;;;;;;4776340;29;20055;-89
2021/09/21 00:10:32;;;;;;;5.00;3.90;;;11.70;99.90;;;;;;4765015;30;20063;-88
2021/09/21 00:12:59;;;;;;;4.90;4.40;;;11.60;99.90;;;;;;4772071;29;20062;-88
2021/09/21 00:15:25;;;;;;;7.35;4.78;;;11.70;99.90;;;;;;4769205;29;20077;-88
2021/09/21 00:17:52;;;;;;;6.18;5.00;;;11.70;99.90;;;;;;4766500;29;20055;-89
2021/09/21 00:20:18;;;;;;;6.07;4.80;;;11.70;99.90;;;;;;4786823;29;20489;-88
2021/09/21 00:22:45;;;;;;;6.45;4.53;;;11.70;99.90;;;;;;4775568;30;20122;-89
2021/09/21 00:25:13;;;;;;;6.35;4.55;;;11.70;99.90;;;;;;4805038;29;20051;-89
2021/09/21 00:27:43;;;;;;;6.65;4.35;;;11.70;99.90;;;;;;4790235;29;20086;-88
2021/09/21 00:30:10;;;;;;;7.20;4.85;;;11.70;99.90;;;;;;4780008;29;20055;-88
2021/09/21 00:32:36;;;;;;;6.78;4.40;;;11.70;99.90;;;;;;4784585;29;20701;-88
2021/09/21 00:35:01;;;;;;;7.22;5.25;;;11.80;99.90;;;;;;4786581;29;20059;-89
2021/09/21 00:37:27;;;;;;;5.30;4.57;;;11.80;99.90;;;;;;4779237;29;20051;-88
2021/09/21 00:39:53;;;;;;;5.13;4.55;;;11.80;99.90;;;;;;4769562;29;20117;-89
2021/09/21 00:42:28;;;;;;;8.20;4.97;;;11.80;99.90;;;;;;4771634;30;20105;-89
2021/09/21 00:45:05;;;;;;;8.63;4.72;;;11.80;99.90;;;;;;4783356;29;20047;-89
2021/09/21 00:47:31;;;;;;;7.75;4.85;;;11.80;99.90;;;;;;4759559;30;20055;-89
2021/09/21 00:49:57;;;;;;;5.38;4.82;;;11.80;99.90;;;;;;4773904;29;20056;-89
2021/09/21 00:52:24;;;;;;;5.28;4.78;;;11.80;99.90;;;;;;4768568;30;20108;-88
2021/09/21 00:54:50;;;;;;;8.25;5.25;;;11.80;99.90;;;;;;4784228;29;20056;-89
2021/09/21 00:57:16;;;;;;;6.85;4.97;;;11.80;99.90;;;;;;4797288;29;20561;-91
2021/09/21 00:59:42;;;;;;;7.10;4.97;;;11.80;99.90;;;;;;4786142;29;20054;-89
2021/09/21 01:02:08;;;;;;;5.70;5.10;;;11.80;99.90;;;;;;4775447;29;20055;-88
2021/09/21 01:04:35;;;;;;;5.75;5.15;;;11.80;99.90;;;;;;4778497;29;20112;-88
2021/09/21 01:07:01;;;;;;;5.75;4.95;;;11.80;99.90;;;;;;4768534;29;20098;-89
2021/09/21 01:09:28;;;;;;;9.25;4.57;;;11.80;99.90;;;;;;4785506;29;20462;-89
2021/09/21 01:11:59;;;;;;;8.70;5.45;;;11.80;99.90;;;;;;4776625;29;20087;-90
2021/09/21 01:14:25;;;;;;;9.00;4.93;;;11.80;99.90;;;;;;4791858;29;20060;-89
2021/09/21 01:16:53;;;;;;;6.75;5.07;;;11.80;99.90;;;;;;4744524;30;20109;-89
2021/09/21 01:19:19;;;;;;;8.38;5.20;;;11.80;99.90;;;;;;4771743;29;20083;-90
2021/09/21 01:21:46;;;;;;;8.32;4.85;;;11.80;99.90;;;;;;4775327;29;20070;-90
2021/09/21 01:24:13;;;;;;;8.70;5.60;;;11.80;99.90;;;;;;4771591;29;20052;-89
2021/09/21 01:26:39;;;;;;;6.63;5.10;;;11.80;99.90;;;;;;4768019;29;20047;-88
2021/09/21 01:29:05;;;;;;;7.75;4.90;;;11.80;99.90;;;;;;4771957;30;20116;-88
2021/09/21 01:31:31;;;;;;;9.32;4.90;;;11.90;99.90;;;;;;4778784;29;20490;-88
2021/09/21 01:33:58;;;;;;;9.60;5.55;;;11.80;99.90;;;;;;4781451;29;20116;-88
2021/09/21 01:36:26;;;;;;;6.38;4.97;;;11.90;99.90;;;;;;4787868;29;20093;-88
2021/09/21 01:38:52;;;;;;;8.75;4.85;;;11.80;99.90;;;;;;4767862;29;20082;-88
2021/09/21 01:41:18;;;;;;;7.32;4.93;;;11.80;99.90;;;;;;4780400;29;20512;-90
2021/09/21 01:43:45;;;;;;;6.82;5.25;;;11.80;99.90;;;;;;4777301;29;20134;-89
2021/09/21 01:46:17;;;;;;;6.20;5.07;;;11.80;99.90;;;;;;4768146;29;20056;-89
2021/09/21 01:48:43;;;;;;;9.52;4.95;;;11.80;99.90;;;;;;4782867;29;20155;-88
2021/09/21 01:51:14;;;;;;;6.03;4.88;;;11.80;99.90;;;;;;4770627;30;20055;-89
2021/09/21 01:58:53;;;;;;;12.55;5.22;;;11.70;99.90;;;;;;4780716;29;20044;-88
2021/09/21 02:01:27;;;;;;;8.18;5.50;;;11.70;99.90;;;;;;4763818;30;20058;-88
2021/09/21 02:03:55;;;;;;;9.60;5.68;;;11.70;99.90;;;;;;4753832;30;20501;-88
2021/09/21 02:06:24;;;;;;;7.50;5.47;;;11.60;99.90;;;;;;4759424;30;20057;-91
2021/09/21 02:08:50;;;;;;;7.93;5.57;;;11.60;99.90;;;;;;4780772;29;20130;-89
2021/09/21 02:11:16;;;;;;;9.50;5.25;;;11.60;99.90;;;;;;4779776;29;20126;-88
2021/09/21 02:13:41;;;;;;;12.80;6.32;;;11.60;99.90;;;;;;4767167;29;20055;-89
2021/09/21 02:16:07;;;;;;;7.88;5.78;;;11.60;99.90;;;;;;4780339;29;20143;-88
2021/09/21 02:18:33;;;;;;;8.85;5.63;;;11.60;99.90;;;;;;4792663;29;20392;-89
2021/09/21 02:21:00;;;;;;;7.45;5.47;;;11.60;99.90;;;;;;4785164;29;20047;-88
2021/09/21 02:23:26;;;;;;;9.35;5.47;;;11.60;99.90;;;;;;4769926;30;20157;-90
2021/09/21 02:25:51;;;;;;;12.38;5.53;;;11.60;99.90;;;;;;4792649;29;20039;-88
2021/09/21 02:28:18;;;;;;;7.65;5.25;;;11.60;99.90;;;;;;4752818;30;20063;-89
2021/09/21 02:30:44;;;;;;;10.48;5.47;;;11.60;99.90;;;;;;4778162;29;20046;-88
2021/09/21 02:33:12;;;;;;;10.18;5.35;;;11.70;99.90;;;;;;4770330;30;20059;-88
2021/09/21 02:35:39;;;;;;;9.48;5.93;;;11.60;99.90;;;;;;4769922;29;20105;-88
2021/09/21 02:38:04;;;;;;;11.63;5.65;;;11.70;99.90;;;;;;4772541;29;20089;-88
2021/09/21 02:40:30;;;;;;;10.95;5.10;;;11.70;99.90;;;;;;4794227;29;20051;-88
2021/09/21 02:42:56;;;;;;;7.40;5.63;;;11.70;99.90;;;;;;4757104;29;20056;-88
2021/09/21 02:45:22;;;;;;;8.77;5.88;;;11.70;99.90;;;;;;4769946;29;20098;-87
2021/09/21 02:47:48;;;;;;;9.63;5.63;;;11.70;99.90;;;;;;4772896;29;20083;-88
2021/09/21 02:50:14;;;;;;;9.00;5.95;;;11.70;99.90;;;;;;4767325;29;20117;-88
2021/09/21 02:52:39;;;;;;;13.00;5.65;;;11.80;99.90;;;;;;4767225;29;20409;-88
2021/09/21 02:55:06;;;;;;;5.75;5.00;;;11.80;99.90;;;;;;4768381;29;20055;-88
2021/09/21 02:57:35;;;;;;;9.65;5.45;;;11.80;99.90;;;;;;4763734;30;20051;-88
2021/09/21 03:00:06;;;;;;;9.95;4.68;;;11.80;99.90;;;;;;4773709;29;20091;-88
2021/09/21 03:02:33;;;;;;;11.20;5.22;;;11.80;99.90;;;;;;4759504;30;20060;-88
2021/09/21 03:05:03;;;;;;;10.70;4.95;;;11.80;99.90;;;;;;4755964;29;20051;-89
2021/09/21 03:07:41;;;;;;;5.38;4.65;;;11.80;99.90;;;;;;4773408;30;20174;-90
2021/09/21 03:13:26;;;;;;;6.40;4.45;;;11.80;99.90;;;;;;4775689;29;20051;-88
2021/09/21 03:18:37;;;;;;;4.82;4.13;;;11.80;99.90;;;;;;4757828;30;20051;-88
2021/09/21 03:21:03;;;;;;;6.82;4.95;;;11.90;99.90;;;;;;4770744;29;20127;-89
2021/09/21 03:23:29;;;;;;;5.85;4.78;;;11.90;99.90;;;;;;4770118;29;20161;-89
2021/09/21 03:25:55;;;;;;;11.13;5.00;;;11.90;99.90;;;;;;4760403;29;20140;-88
2021/09/21 03:28:21;;;;;;;7.07;4.68;;;11.90;99.90;;;;;;4782192;29;20523;-87
2021/09/21 03:30:46;;;;;;;4.00;3.70;;;11.90;99.90;;;;;;4794564;29;20047;-88
2021/09/21 03:33:12;;;;;;;7.18;4.40;;;11.90;99.90;;;;;;4787063;29;20140;-87
2021/09/21 03:35:38;;;;;;;9.82;4.00;;;12.00;99.90;;;;;;4786337;29;20104;-88
2021/09/21 03:38:04;;;;;;;6.38;4.38;;;12.00;99.90;;;;;;4774974;29;20495;-88
2021/09/21 03:40:31;;;;;;;4.47;3.67;;;12.00;99.90;;;;;;4775942;30;20057;-90
2021/09/21 03:42:57;;;;;;;6.10;4.68;;;12.00;99.90;;;;;;4774844;29;20055;-89
2021/09/21 03:45:24;;;;;;;9.02;4.00;;;12.00;99.90;;;;;;4774253;29;20047;-88
2021/09/21 03:47:50;;;;;;;6.28;4.20;;;12.00;99.90;;;;;;4757521;30;20045;-88
2021/09/21 03:50:16;;;;;;;5.47;4.55;;;12.00;99.90;;;;;;4758071;30;20516;-88
2021/09/21 03:52:42;;;;;;;6.30;4.38;;;12.00;99.90;;;;;;4772220;30;20051;-88
2021/09/21 03:55:08;;;;;;;5.68;4.20;;;12.00;99.90;;;;;;4775332;29;20050;-88
2021/09/21 03:57:33;;;;;;;8.80;4.53;;;12.00;99.90;;;;;;4782465;30;20508;-92
2021/09/21 03:59:59;;;;;;;7.90;4.35;;;12.00;99.90;;;;;;4772155;29;20047;-88
2021/09/21 04:02:25;;;;;;;5.53;3.47;;;12.00;99.90;;;;;;4760062;30;20502;-87
2021/09/21 04:04:50;;;;;;;5.00;3.55;;;12.00;99.90;;;;;;4769041;29;20117;-88
2021/09/21 04:07:16;;;;;;;11.75;4.53;;;12.10;99.90;;;;;;4768839;29;20068;-88
2021/09/21 04:09:42;;;;;;;4.97;3.70;;;12.00;99.90;;;;;;4760842;30;20083;-89
2021/09/21 04:12:07;;;;;;;4.45;3.88;;;12.00;99.90;;;;;;4766207;30;20443;-88
2021/09/21 04:14:34;;;;;;;3.88;3.45;;;12.00;99.90;;;;;;4770028;29;20139;-91
2021/09/21 04:17:00;;;;;;;4.20;3.42;;;12.00;99.90;;;;;;4769436;29;20068;-88
2021/09/21 04:19:26;;;;;;;3.90;3.00;;;12.00;99.90;;;;;;4770404;29;20062;-88
2021/09/21 04:21:52;;;;;;;4.28;3.35;;;12.00;99.90;;;;;;4768827;29;20047;-88
2021/09/21 04:24:17;;;;;;;6.75;3.65;;;12.00;99.90;;;;;;4781777;29;20055;-88
2021/09/21 04:26:43;;;;;;;8.40;3.17;;;12.00;99.90;;;;;;4768460;29;20051;-88
2021/09/21 04:29:10;;;;;;;4.90;3.33;;;12.00;99.90;;;;;;4780636;29;20476;-88
2021/09/21 04:31:40;;;;;;;3.80;2.88;;;12.00;99.90;;;;;;4782140;29;20485;-89
2021/09/21 04:34:06;;;;;;;4.55;3.40;;;12.00;99.90;;;;;;4778080;29;20521;-88
2021/09/21 04:36:32;;;;;;;4.55;3.58;;;12.00;99.90;;;;;;4783615;29;20117;-88
2021/09/21 04:38:58;;;;;;;9.25;4.07;;;12.00;99.90;;;;;;4783392;30;20075;-89
2021/09/21 04:41:24;;;;;;;6.57;3.70;;;12.00;99.90;;;;;;4771485;29;20485;-88
2021/09/21 04:43:50;;;;;;;5.68;3.58;;;12.00;99.90;;;;;;4793602;29;20062;-90
2021/09/21 04:46:16;;;;;;;3.97;3.15;;;11.90;99.90;;;;;;4790165;29;20058;-89
2021/09/21 04:48:42;;;;;;;4.30;3.08;;;12.00;99.90;;;;;;4769108;29;20111;-88
2021/09/21 04:51:08;;;;;;;10.23;4.10;;;11.90;99.90;;;;;;4790928;29;20130;-89
2021/09/21 04:53:34;;;;;;;5.88;3.50;;;11.90;99.90;;;;;;4769053;30;20058;-91
2021/09/21 04:56:00;;;;;;;5.65;3.80;;;12.00;99.90;;;;;;4785287;29;20184;-88
2021/09/21 04:58:25;;;;;;;3.80;3.08;;;12.00;99.90;;;;;;4783715;29;20134;-89
2021/09/21 05:00:52;;;;;;;9.38;4.20;;;12.00;99.90;;;;;;4771506;29;20090;-88
2021/09/21 05:03:17;;;;;;;10.10;3.67;;;12.00;99.90;;;;;;4762159;29;20055;-89
2021/09/21 05:05:43;;;;;;;6.50;3.92;;;11.90;99.90;;;;;;4765747;30;20059;-88
2021/09/21 05:08:09;;;;;;;5.15;3.75;;;12.00;99.90;;;;;;4732173;30;20706;-87
2021/09/21 05:10:34;;;;;;;8.68;3.55;;;12.00;99.90;;;;;;4771543;29;20050;-88
2021/09/21 05:13:00;;;;;;;6.13;3.65;;;11.90;99.90;;;;;;4782638;29;20059;-87
2021/09/21 05:15:26;;;;;;;5.65;3.53;;;12.00;99.90;;;;;;4795287;29;20504;-88
2021/09/21 05:17:52;;;;;;;5.03;3.28;;;11.90;99.90;;;;;;4769449;30;20058;-87
2021/09/21 05:20:18;;;;;;;11.32;3.72;;;11.90;99.90;;;;;;4778344;29;20055;-88
2021/09/21 05:22:44;;;;;;;6.65;3.50;;;11.90;99.90;;;;;;4758969;29;20059;-87
2021/09/21 05:25:11;;;;;;;4.07;3.38;;;11.90;99.90;;;;;;4764444;30;20086;-88
2021/09/21 05:27:38;;;;;;;7.18;3.75;;;11.80;99.90;;;;;;4768907;29;20155;-89
2021/09/21 05:30:04;;;;;;;4.45;3.33;;;11.80;99.90;;;;;;4773514;29;20059;-87
2021/09/21 05:32:30;;;;;;;8.05;3.70;;;11.80;99.90;;;;;;4765980;30;20921;-88
2021/09/21 05:34:56;;;;;;;11.60;3.58;;;11.70;99.90;;;;;;4771434;30;20067;-87
2021/09/21 05:37:22;;;;;;;5.93;3.28;;;11.60;99.90;;;;;;4769569;30;20142;-92
2021/09/21 05:39:48;;;;;;;5.18;3.90;;;11.60;99.90;;;;;;4768931;29;20056;-89
2021/09/21 05:42:14;;;;;;;5.45;3.47;;;11.60;99.90;;;;;;4787235;29;20057;-88
2021/09/21 05:44:40;;;;;;;11.30;3.92;;;11.50;99.90;;;;;;4769784;29;20059;-91
2021/09/21 05:47:07;;;;;;;11.43;3.83;;;11.50;99.90;;;;;;4769657;30;20059;-88
2021/09/21 05:49:33;;;;;;;4.28;3.45;;;11.50;99.90;;;;;;4770313;30;20136;-88
2021/09/21 05:51:59;;;;;;;10.25;3.10;;;11.40;99.90;;;;;;4790051;29;20488;-87
2021/09/21 05:54:24;;;;;;;4.50;3.20;;;11.40;99.90;;;;;;4784264;29;20060;-87
2021/09/21 05:56:50;;;;;;;4.85;3.45;;;11.40;99.90;;;;;;4768270;30;20139;-88
2021/09/21 05:59:16;;;;;;;5.90;3.75;;;11.40;99.90;;;;;;4746878;30;20489;-86
2021/09/21 06:01:41;;;;;;;7.13;3.58;;;11.40;99.90;;;;;;4772091;29;20060;-90
2021/09/21 06:04:08;;;;;;;3.55;3.25;;;11.40;99.90;;;;;;4771598;29;20091;-88
2021/09/21 06:06:34;;;;;;;7.93;3.92;;;11.40;99.90;;;;;;4774910;29;20055;-87
2021/09/21 06:09:00;;;;;;;6.53;3.83;;;11.40;99.90;;;;;;4742503;29;20479;-86
2021/09/21 06:11:32;;;;;;;7.55;3.92;;;11.40;99.90;;;;;;4764802;30;20055;-89
2021/09/21 06:13:59;;;;;;;5.22;3.85;;;11.40;99.90;;;;;;4771579;30;20082;-89
2021/09/21 06:16:25;;;;;;;6.35;4.05;;;11.40;99.90;;;;;;4780593;29;20052;-89
2021/09/21 06:18:51;;;;;;;6.93;3.45;;;11.40;99.90;;;;;;4778114;29;20096;-88
2021/09/21 06:21:16;;;;;;;11.60;3.83;;;11.50;99.90;;;;;;4781784;29;20055;-87
2021/09/21 06:23:42;;;;;;;8.73;4.10;;;11.40;99.90;;;;;;4772801;30;20062;-91
2021/09/21 06:26:08;;;;;;;4.32;3.63;;;11.50;99.90;;;;;;4770083;29;20140;-87
2021/09/21 06:28:33;;;;;;;4.65;3.00;;;11.50;99.90;;;;;;4785693;29;20063;-90
2021/09/21 06:31:01;;;;;;;5.05;3.42;;;11.50;99.90;;;;;;4770048;29;20051;-87
2021/09/21 06:33:27;;;;;;;7.57;3.70;;;11.60;99.90;;;;;;4773981;29;20413;-88
2021/09/21 06:35:53;;;;;;;4.60;3.28;;;11.60;99.90;;;;;;4771239;30;20055;-87
2021/09/21 06:38:18;;;;;;;6.65;4.05;;;11.70;99.90;;;;;;4758853;30;20054;-88
2021/09/21 06:40:44;;;;;;;6.43;3.40;;;11.70;99.90;;;;;;4772236;29;20171;-92
2021/09/21 06:43:10;;;;;;;4.75;3.80;;;11.70;99.90;;;;;;4744987;29;20086;-89
2021/09/21 06:45:35;;;;;;;5.80;3.85;;;11.70;99.90;;;;;;4770554;29;20079;-88
2021/09/21 06:48:01;;;;;;;4.93;3.63;;;11.80;99.90;;;;;;4750695;29;20071;-89
2021/09/21 06:50:27;;;;;;;3.55;3.25;;;11.80;99.90;;;;;;4768462;30;20051;-88
2021/09/21 06:52:52;;;;;;;7.63;3.85;;;11.80;99.90;;;;;;4794913;29;20051;-87
2021/09/21 06:55:18;;;;;;;7.43;3.72;;;11.90;99.90;;;;;;4753632;30;20108;-88
2021/09/21 06:57:52;;;;;;;7.07;3.58;;;12.00;99.90;;;;;;4766125;29;20040;-88
2021/09/21 07:00:20;;;;;;;3.50;3.20;;;12.10;99.90;;;;;;4763601;30;20108;-88
2021/09/21 07:02:48;;;;;;;12.05;3.92;;;12.20;99.90;;;;;;4766322;30;20097;-91
2021/09/21 07:05:14;;;;;;;5.72;4.03;;;12.30;99.90;;;;;;4782152;30;20058;-87
2021/09/21 07:07:49;;;;;;;8.15;4.00;;;12.30;99.90;;;;;;4773309;29;20386;-89
2021/09/21 07:10:16;;;;;;;6.18;3.80;;;12.40;99.90;;;;;;4767456;30;20055;-89
2021/09/21 07:12:42;;;;;;;6.95;4.32;;;12.50;99.90;;;;;;4784693;29;20082;-90
2021/09/21 07:15:08;;;;;;;5.50;3.22;;;12.50;99.90;;;;;;4784015;29;20089;-90
2021/09/21 07:17:34;;;;;;;5.68;4.20;;;12.60;99.90;;;;;;4784369;29;20055;-89
2021/09/21 07:20:00;;;;;;;4.13;3.33;;;12.70;99.90;;;;;;4762692;30;20531;-89
2021/09/21 07:22:28;;;;;;;4.60;3.50;;;12.70;99.90;;;;;;4777494;29;20055;-89
2021/09/21 07:24:54;;;;;;;5.80;3.80;;;12.80;99.90;;;;;;4768796;30;20083;-89
2021/09/21 07:27:20;;;;;;;8.52;3.38;;;12.90;99.90;;;;;;4767048;30;20564;-88
2021/09/21 07:29:45;;;;;;;5.97;3.90;;;13.00;99.90;;;;;;4773724;29;20054;-88
2021/09/21 07:32:11;;;;;;;6.80;4.00;;;13.10;99.90;;;;;;4761661;30;20043;-89
2021/09/21 07:34:37;;;;;;;6.05;3.85;;;13.10;99.90;;;;;;4776444;29;20508;-88
2021/09/21 07:37:03;;;;;;;6.35;3.75;;;13.20;99.90;;;;;;4751687;30;20059;-89
2021/09/21 07:39:29;;;;;;;5.18;3.83;;;13.30;99.90;;;;;;4780828;29;20055;-88
2021/09/21 07:41:55;;;;;;;3.90;3.38;;;13.40;99.90;;;;;;4779222;29;20485;-88
2021/09/21 07:44:21;;;;;;;6.15;3.55;;;13.40;99.90;;;;;;4766691;30;20059;-88
2021/09/21 07:46:48;;;;;;;4.95;3.10;;;13.50;99.90;;;;;;4777296;30;20049;-89
2021/09/21 07:49:13;;;;;;;4.20;3.40;;;13.60;99.90;;;;;;4781858;29;20179;-89
2021/09/21 07:51:39;;;;;;;5.97;3.42;;;13.70;99.90;;;;;;4768757;29;20142;-88
2021/09/21 07:54:07;;;;;;;6.07;3.70;;;13.70;99.90;;;;;;4779140;29;20112;-88
2021/09/21 07:56:33;;;;;;;4.75;3.40;;;13.80;99.90;;;;;;4782510;29;20124;-89
2021/09/21 07:58:59;;;;;;;5.68;3.35;;;13.90;99.90;;;;;;4767611;30;20051;-87
2021/09/21 08:01:24;;;;;;;4.63;3.35;;;14.00;99.90;;;;;;4766443;30;20504;-87
2021/09/21 08:03:50;;;;;;;4.28;3.78;;;14.10;99.90;;;;;;4758327;30;20047;-87
2021/09/21 08:06:16;;;;;;;4.18;3.35;;;14.10;99.90;;;;;;4766015;29;20051;-87
2021/09/21 08:08:42;;;;;;;5.28;3.33;;;14.20;99.90;;;;;;4755754;29;20086;-91
2021/09/21 08:11:10;;;;;;;3.70;3.20;;;14.30;99.90;;;;;;4771942;30;20062;-91
2021/09/21 08:13:36;;;;;;;5.28;3.17;;;14.40;99.90;;;;;;4783139;29;20116;-92
2021/09/21 08:16:02;;;;;;;6.38;3.38;;;14.40;99.90;;;;;;4774867;29;20451;-92
2021/09/21 08:18:28;;;;;;;9.80;3.50;;;14.50;99.90;;;;;;4771400;29;20048;-87
2021/09/21 08:20:53;;;;;;;5.32;3.28;;;14.60;99.90;;;;;;4767196;29;20059;-93
2021/09/21 08:23:19;;;;;;;8.60;3.55;;;14.60;99.90;;;;;;4774300;29;20047;-92
2021/09/21 08:25:45;;;;;;;7.00;3.85;;;14.80;99.90;;;;;;4771588;30;20079;-91
2021/09/21 08:28:11;;;;;;;7.45;3.28;;;14.80;99.90;;;;;;4772515;30;20055;-92
2021/09/21 08:30:37;;;;;;;6.65;3.67;;;14.80;99.90;;;;;;4772585;30;20047;-92
2021/09/21 08:33:03;;;;;;;4.95;3.20;;;14.90;99.90;;;;;;4769411;29;20056;-92
2021/09/21 08:35:29;;;;;;;9.27;3.28;;;15.00;99.90;;;;;;4775405;29;20056;-91
2021/09/21 08:37:56;;;;;;;7.53;3.35;;;15.00;99.90;;;;;;4775811;29;20048;-92
2021/09/21 08:40:21;;;;;;;5.82;3.40;;;15.10;99.90;;;;;;4769585;29;20059;-92
2021/09/21 08:42:47;;;;;;;3.42;3.13;;;15.10;99.90;;;;;;4770636;29;20047;-87
2021/09/21 08:45:13;;;;;;;5.72;3.38;;;15.20;99.90;;;;;;4756097;30;20052;-87
2021/09/21 08:47:40;;;;;;;3.55;3.25;;;15.30;99.90;;;;;;4756502;30;20055;-87
2021/09/21 08:50:07;;;;;;;3.42;3.13;;;15.40;99.90;;;;;;4756399;30;20082;-87
2021/09/21 08:52:33;;;;;;;2.92;2.72;;;15.50;99.90;;;;;;4756361;30;20058;-87
2021/09/21 08:55:00;;;;;;;3.83;2.70;;;15.50;99.90;;;;;;4788844;30;20057;-92
2021/09/21 08:57:28;;;;;;;8.18;3.28;;;15.60;99.90;;;;;;4786528;30;20116;-87
2021/09/21 08:59:55;;;;;;;5.13;2.75;;;15.70;99.90;;;;;;4786052;30;20148;-87
2021/09/21 09:02:23;;;;;;;3.42;2.45;;;15.80;99.90;;;;;;4775579;29;20519;-88
2021/09/21 09:04:59;;;;;;;7.43;3.10;;;15.80;99.90;;;;;;4782304;30;20061;-87
2021/09/21 09:07:26;;;;;;;3.20;2.83;;;15.90;99.90;;;;;;4794637;29;20532;-86
2021/09/21 09:10:04;;;;;;;3.42;2.53;;;16.00;99.90;;;;;;4775192;30;20409;-87
2021/09/21 09:12:32;;;;;;;4.63;2.50;;;16.00;99.90;;;;;;4782918;30;20055;-88
2021/09/21 09:14:59;;;;;;;6.43;2.40;;;16.10;99.90;;;;;;4794296;29;20054;-89
2021/09/21 09:17:25;;;;;;;3.20;2.22;;;16.10;99.90;;;;;;4789563;29;20054;-87
2021/09/21 09:19:51;;;;;;;5.68;2.00;;;16.20;99.90;;;;;;4791018;29;20059;-89
2021/09/21 09:22:27;;;;;;;6.57;2.22;;;16.30;99.90;;;;;;4778265;30;20047;-86
2021/09/21 09:24:58;;;;;;;2.65;2.15;;;16.40;99.90;;;;;;4773157;30;20061;-86
2021/09/21 09:27:41;;;;;;;6.93;2.28;;;16.40;99.90;;;;;;4796594;29;20086;-88
2021/09/21 09:30:13;;;;;;;3.17;2.38;;;16.50;99.90;;;;;;4776518;29;20382;-88
2021/09/21 09:32:51;;;;;;;2.70;2.50;;;16.50;99.90;;;;;;4782993;29;20066;-88
2021/09/21 09:35:35;;;;;;;3.72;2.83;;;16.70;99.90;;;;;;4764464;30;20513;-87
2021/09/21 09:38:06;;;;;;;8.80;2.88;;;16.70;99.90;;;;;;4783590;29;20061;-90
2021/09/21 09:40:42;;;;;;;11.30;3.33;;;16.80;99.90;;;;;;4772613;30;20051;-87
2021/09/21 09:43:08;;;;;;;6.65;3.42;;;16.80;99.90;;;;;;4762235;30;20079;-88
2021/09/21 09:45:37;;;;;;;10.70;2.92;;;16.70;99.90;;;;;;4778924;29;20159;-89
2021/09/21 09:48:05;;;;;;;4.15;2.63;;;16.90;99.90;;;;;;4778504;29;20063;-89
2021/09/21 09:50:37;;;;;;;4.60;2.70;;;16.90;99.90;;;;;;4778325;29;20065;-89
2021/09/21 09:53:17;;;;;;;7.43;3.03;;;17.00;99.90;;;;;;4769810;29;20489;-93
2021/09/21 09:55:48;;;;;;;4.10;3.15;;;17.00;99.90;;;;;;4778534;29;20071;-88
2021/09/21 09:58:14;;;;;;;3.20;2.90;;;17.00;99.90;;;;;;4782147;29;20052;-89
2021/09/21 10:00:40;;;;;;;3.78;2.95;;;17.10;99.90;;;;;;4771719;30;20054;-87
2021/09/21 10:03:07;;;;;;;3.38;3.08;;;17.20;99.90;;;;;;4770119;30;20117;-92
2021/09/21 10:05:36;;;;;;;5.57;2.92;;;17.20;99.90;;;;;;4774666;29;20142;-88
2021/09/21 10:08:02;;;;;;;10.73;2.80;;;17.20;99.90;;;;;;4791873;29;20055;-89
2021/09/21 10:10:29;;;;;;;4.40;3.28;;;17.30;99.90;;;;;;4781889;29;20489;-88
2021/09/21 10:12:58;;;;;;;5.97;3.03;;;17.40;99.90;;;;;;4785236;29;20055;-88
2021/09/21 10:15:28;;;;;;;4.20;3.15;;;17.40;99.90;;;;;;4767278;30;20124;-87
2021/09/21 10:17:59;;;;;;;7.10;3.10;;;17.40;99.90;;;;;;4757608;30;20130;-88
2021/09/21 10:20:39;;;;;;;16.20;3.42;;;17.50;99.90;;;;;;4783081;29;20447;-87
2021/09/21 10:23:09;;;;;;;3.10;2.80;;;17.50;99.90;;;;;;4767897;29;20497;-90
2021/09/21 10:25:38;;;;;;;5.80;3.10;;;17.60;99.90;;;;;;4767676;29;20079;-86
2021/09/21 10:28:20;;;;;;;4.30;2.95;;;17.60;99.90;;;;;;4767491;29;20067;-86
2021/09/21 10:30:55;;;;;;;4.35;3.35;;;17.60;99.90;;;;;;4760101;30;20052;-87
2021/09/21 10:33:26;;;;;;;4.18;3.22;;;17.60;99.90;;;;;;4776934;30;20051;-86
2021/09/21 10:35:52;;;;;;;11.25;3.30;;;17.70;99.90;;;;;;4767983;29;20130;-86
2021/09/21 10:38:19;;;;;;;6.72;3.25;;;17.80;99.90;;;;;;4793144;29;20052;-88
2021/09/21 10:40:48;;;;;;;7.18;3.33;;;17.80;99.90;;;;;;4768499;30;20055;-85
2021/09/21 10:43:21;;;;;;;5.82;3.50;;;17.90;99.90;;;;;;4752884;29;20056;-88
2021/09/21 10:45:51;;;;;;;7.88;3.47;;;17.90;99.90;;;;;;4770753;29;20051;-86
2021/09/21 10:48:21;;;;;;;4.93;2.95;;;17.90;99.90;;;;;;4770889;29;20084;-86
2021/09/21 10:50:58;;;;;;;7.93;3.33;;;18.00;99.90;;;;;;4787197;29;20051;-86
2021/09/21 10:53:25;;;;;;;5.55;3.08;;;18.00;99.90;;;;;;4777803;29;20113;-87
2021/09/21 10:56:11;;;;;;;10.88;3.45;;;18.00;99.90;;;;;;4768472;30;20058;-87
2021/09/21 10:58:39;;;;;;;3.53;3.22;;;18.00;99.90;;;;;;4771864;29;20047;-86
2021/09/21 11:01:06;;;;;;;3.75;3.35;;;18.10;99.90;;;;;;4769781;30;20130;-87
2021/09/21 11:03:37;;;;;;;4.80;3.45;;;18.20;99.90;;;;;;4773226;29;20898;-87
2021/09/21 11:06:03;;;;;;;6.03;3.90;;;18.30;99.90;;;;;;4758329;30;20562;-87
2021/09/21 11:08:35;;;;;;;7.57;3.80;;;18.40;99.90;;;;;;4774422;29;20063;-87
2021/09/21 11:11:03;;;;;;;3.28;2.97;;;18.40;99.90;;;;;;4781836;29;20147;-87
2021/09/21 11:13:34;;;;;;;5.95;3.30;;;18.50;99.90;;;;;;4773803;29;20841;-88
2021/09/21 11:16:03;;;;;;;8.30;3.15;;;18.60;99.90;;;;;;4785409;29;20051;-88
2021/09/21 11:18:29;;;;;;;5.77;3.93;;;18.70;99.90;;;;;;4762699;30;20500;-87
2021/09/21 11:20:57;;;;;;;10.05;4.25;;;18.60;99.90;;;;;;4776416;29;20055;-87
2021/09/21 11:23:28;;;;;;;8.23;4.35;;;18.50;99.90;;;;;;4761639;30;20493;-88
2021/09/21 11:25:57;;;;;;;6.50;3.50;;;18.50;99.90;;;;;;4775554;29;20056;-87
2021/09/21 11:28:26;;;;;;;5.03;3.17;;;18.50;99.90;;;;;;4788340;29;20047;-87
2021/09/21 11:30:55;;;;;;;6.28;3.88;;;18.60;99.90;;;;;;4788420;29;20059;-87
2021/09/21 11:33:32;;;;;;;4.85;4.18;;;18.60;99.90;;;;;;4780485;29;20074;-87
2021/09/21 11:36:04;;;;;;;4.03;3.72;;;18.50;99.90;;;;;;4772455;29;20075;-88
2021/09/21 11:38:35;;;;;;;5.75;4.13;;;18.50;99.90;;;;;;4772453;30;20051;-88
2021/09/21 11:41:02;;;;;;;8.43;4.03;;;18.40;99.90;;;;;;4784269;29;20128;-88
2021/09/21 11:43:29;;;;;;;8.30;4.10;;;18.30;99.90;;;;;;4788592;29;20104;-87
2021/09/21 11:45:55;;;;;;;3.30;3.00;;;18.30;99.90;;;;;;4747570;30;20056;-87
2021/09/21 11:48:22;;;;;;;9.55;3.40;;;18.30;99.90;;;;;;4772318;29;20866;-87
2021/09/21 11:50:48;;;;;;;7.38;3.97;;;18.30;99.90;;;;;;4770107;29;20138;-87
2021/09/21 11:53:19;;;;;;;5.18;3.70;;;18.20;99.90;;;;;;4766603;29;20059;-91
2021/09/21 11:55:46;;;;;;;6.43;3.53;;;18.10;99.90;;;;;;4773183;30;20420;-87
2021/09/21 11:58:14;;;;;;;10.07;4.28;;;18.10;99.90;;;;;;4774499;29;20054;-91
2021/09/21 12:00:51;;;;;;;5.03;4.00;;;18.10;99.90;;;;;;4770192;29;20104;-87
2021/09/21 12:03:19;;;;;;;6.28;3.88;;;18.00;99.90;;;;;;4767138;30;20058;-89
2021/09/21 12:05:47;;;;;;;8.73;3.90;;;18.00;99.90;;;;;;4769849;29;20067;-87
2021/09/21 12:08:17;;;;;;;5.03;3.83;;;18.10;99.90;;;;;;4768331;30;20051;-90
2021/09/21 12:10:50;;;;;;;7.72;3.97;;;18.10;99.90;;;;;;4778344;29;20043;-87
2021/09/21 12:13:18;;;;;;;10.00;4.38;;;18.10;99.90;;;;;;4786707;29;20535;-91
2021/09/21 12:15:48;;;;;;;5.13;4.22;;;18.10;99.90;;;;;;4774483;29;20047;-87
2021/09/21 12:18:15;;;;;;;5.38;3.80;;;18.00;99.90;;;;;;4776479;29;20044;-88
2021/09/21 12:20:43;;;;;;;6.10;3.78;;;18.00;99.90;;;;;;4791901;29;20069;-86
2021/09/21 12:23:10;;;;;;;4.32;3.72;;;17.90;99.90;;;;;;4798647;29;20503;-87
2021/09/21 12:25:40;;;;;;;8.70;3.88;;;17.80;99.90;;;;;;4804101;29;20151;-87
2021/09/21 12:28:08;;;;;;;4.40;3.08;;;17.60;99.90;;;;;;4768813;30;20055;-87
2021/09/21 12:30:47;;;;;;;10.60;3.67;;;17.60;99.90;;;;;;4787595;29;20066;-87
2021/09/21 12:33:15;;;;;;;4.30;3.88;;;17.60;99.90;;;;;;4772062;30;20059;-87
2021/09/21 12:35:46;;;;;;;4.18;3.78;;;17.50;99.90;;;;;;4776511;29;20068;-87
2021/09/21 12:38:12;;;;;;;4.82;3.45;;;17.50;99.90;;;;;;4794582;29;20134;-87
2021/09/21 12:40:56;;;;;;;8.52;4.43;;;17.50;99.90;;;;;;4777464;29;20615;-87
2021/09/21 12:43:29;;;;;;;6.70;3.70;;;17.50;99.90;;;;;;4768931;29;20054;-87
2021/09/21 12:45:57;;;;;;;6.00;4.22;;;17.60;99.90;;;;;;4779272;29;20063;-87
2021/09/21 12:48:42;;;;;;;7.35;3.50;;;17.60;99.90;;;;;;4779862;29;20051;-87
2021/09/21 12:51:10;;;;;;;4.50;3.20;;;17.60;99.90;;;;;;4765402;30;20409;-87
2021/09/21 12:53:36;;;;;;;4.80;3.30;;;17.60;99.90;;;;;;4777832;29;20082;-87
2021/09/21 12:56:10;;;;;;;4.65;2.97;;;17.60;99.90;;;;;;4772281;30;20093;-87
2021/09/21 12:58:40;;;;;;;7.57;3.83;;;17.60;99.90;;;;;;4769723;29;20051;-87